Time,TemperatureF,DewpointF,PressureIn,WindDirection,WindDirectionDegrees,WindSpeedMPH,WindSpeedGustMPH,Humidity,HourlyPrecipIn,Conditions,Clouds,dailyrainin,SoftwareType,DateUTC
2013-07-17 00:01:00,76.9,54.5,29.89,North,360,4.0,4.0,46,0.00,CLR,SCT,0.00,WeatherDisplay:10.37,2013-07-16 21:01:00,
2013-07-17 00:06:00,76.9,54.5,29.89,North,360,3.5,3.5,46,0.00,CLR,SCT,0.00,WeatherDisplay:10.37,2013-07-16 21:06:00,
2013-07-17 00:11:00,76.9,54.5,29.89,North,5,0.0,0.0,46,0.00,CLR,SCT,0.00,WeatherDisplay:10.37,2013-07-16 21:11:00,
2013-07-17 00:16:00,76.8,54.5,29.89,North,5,1.2,0.0,46,0.00,CLR,SCT,0.00,WeatherDisplay:10.37,2013-07-16 21:16:00,
2013-07-17 00:21:00,76.8,54.5,29.89,North,5,2.3,2.3,46,0.00,CLR,SCT,0.00,WeatherDisplay:10.37,2013-07-16 21:21:00,
2013-07-17 00:26:00,76.7,54.4,29.89,North,5,0.0,0.0,46,0.00,CLR,SCT,0.00,WeatherDisplay:10.37,2013-07-16 21:26:00,
2013-07-17 00:31:00,76.6,54.3,29.89,North,10,2.3,2.3,46,0.00,CLR,SCT,0.00,WeatherDisplay:10.37,2013-07-16 21:31:00,
2013-07-17 00:36:00,76.6,54.3,29.89,North,11,3.5,3.5,46,0.00,CLR,SCT,0.00,WeatherDisplay:10.37,2013-07-16 21:36:00,
2013-07-17 00:41:00,76.5,54.2,29.89,North,11,3.5,3.5,46,0.00,CLR,SCT,0.00,WeatherDisplay:10.37,2013-07-16 21:41:00,
2013-07-17 00:46:00,76.5,54.2,29.89,NNE,13,4.6,4.6,46,0.00,CLR,SCT,0.00,WeatherDisplay:10.37,2013-07-16 21:46:00,
2013-07-17 00:51:00,76.5,54.2,29.89,NNE,18,3.5,3.5,46,0.00,CLR,SCT,0.00,WeatherDisplay:10.37,2013-07-16 21:51:00,
2013-07-17 00:56:00,76.5,54.2,29.90,NNE,18,0.0,0.0,46,0.00,CLR,SCT,0.00,WeatherDisplay:10.37,2013-07-16 21:56:00,
2013-07-17 01:01:00,76.4,54.1,29.90,NNE,18,2.3,2.3,46,0.00,CLR,SCT,0.00,WeatherDisplay:10.37,2013-07-16 22:01:00,
2013-07-17 01:06:00,76.3,54.6,29.89,NNE,18,0.0,0.0,47,0.00,CLR,SCT,0.00,WeatherDisplay:10.37,2013-07-16 22:06:00,
2013-07-17 01:11:00,76.2,54.5,29.89,NNE,18,2.3,2.3,47,0.00,CLR,SCT,0.00,WeatherDisplay:10.37,2013-07-16 22:11:00,
2013-07-17 01:16:00,76.3,54.6,29.89,NNE,18,0.0,0.0,47,0.00,CLR,SCT,0.00,WeatherDisplay:10.37,2013-07-16 22:16:00,
2013-07-17 01:21:00,76.2,54.5,29.89,NNE,18,0.0,0.0,47,0.00,CLR,SCT,0.00,WeatherDisplay:10.37,2013-07-16 22:21:00,
2013-07-17 01:26:00,76.1,54.4,29.89,NNE,18,0.0,0.0,47,0.00,CLR,SCT,0.00,WeatherDisplay:10.37,2013-07-16 22:26:00,
2013-07-17 01:31:00,76.0,54.9,29.89,NNE,18,0.0,0.0,48,0.00,CLR,SCT,0.00,WeatherDisplay:10.37,2013-07-16 22:31:00,
2013-07-17 01:36:00,75.8,54.7,29.90,NNE,18,0.0,0.1,48,0.00,CLR,SCT,0.00,WeatherDisplay:10.37,2013-07-16 22:36:00,
2013-07-17 01:41:00,75.8,54.7,29.89,NE,42,4.0,4.0,48,0.00,CLR,SCT,0.00,WeatherDisplay:10.37,2013-07-16 22:41:00,
2013-07-17 01:46:00,75.9,54.8,29.89,ENE,72,4.0,4.0,48,0.00,CLR,SCT,0.00,WeatherDisplay:10.37,2013-07-16 22:46:00,
2013-07-17 01:51:00,75.9,55.4,29.89,NNE,30,5.8,5.8,49,0.00,CLR,SCT,0.00,WeatherDisplay:10.37,2013-07-16 22:51:00,
2013-07-17 01:56:00,75.9,55.9,29.89,NNE,32,3.5,3.5,50,0.00,CLR,SCT,0.00,WeatherDisplay:10.37,2013-07-16 22:56:00,
2013-07-17 02:01:00,75.8,56.4,29.89,NE,36,4.6,4.6,51,0.00,CLR,SCT,0.00,WeatherDisplay:10.37,2013-07-16 23:01:00,
2013-07-17 02:06:00,75.7,56.8,29.89,NE,56,5.8,5.8,52,0.00,CLR,SCT,0.00,WeatherDisplay:10.37,2013-07-16 23:06:00,
2013-07-17 02:12:00,75.6,57.8,29.89,East,98,10.4,10.4,54,0.00,CLR,SCT,0.00,WeatherDisplay:10.37,2013-07-16 23:12:00,
2013-07-17 02:17:00,75.4,58.1,29.89,NE,53,10.4,10.4,55,0.00,CLR,SCT,0.00,WeatherDisplay:10.37,2013-07-16 23:17:00,
2013-07-17 02:22:00,75.3,58.0,29.89,NE,49,4.6,4.6,55,0.00,CLR,SCT,0.00,WeatherDisplay:10.37,2013-07-16 23:22:00,
2013-07-17 02:27:00,75.2,58.4,29.89,NE,45,5.8,5.8,56,0.00,CLR,SCT,0.00,WeatherDisplay:10.37,2013-07-16 23:27:00,
2013-07-17 02:32:00,75.1,58.8,29.89,NE,56,5.0,5.0,57,0.00,CLR,SCT,0.00,WeatherDisplay:10.37,2013-07-16 23:32:00,
2013-07-17 02:37:00,75.0,59.2,29.89,NE,40,5.0,5.0,58,0.00,CLR,SCT,0.00,WeatherDisplay:10.37,2013-07-16 23:37:00,
2013-07-17 02:42:00,75.0,59.2,29.88,NE,44,6.9,6.9,58,0.00,CLR,SCT,0.00,WeatherDisplay:10.37,2013-07-16 23:42:00,
2013-07-17 02:47:00,75.0,59.7,29.88,NE,39,11.5,11.5,59,0.00,CLR,SCT,0.00,WeatherDisplay:10.37,2013-07-16 23:47:00,
2013-07-17 02:52:00,74.9,59.6,29.89,NE,50,6.9,6.9,59,0.00,CLR,SCT,0.00,WeatherDisplay:10.37,2013-07-16 23:52:00,
2013-07-17 02:57:00,74.9,60.1,29.89,ENE,57,10.4,10.4,60,0.00,CLR,SCT,0.00,WeatherDisplay:10.37,2013-07-16 23:57:00,
2013-07-17 03:02:00,74.8,60.0,29.89,NE,53,4.0,4.5,60,0.00,CLR,SCT,0.00,WeatherDisplay:10.37,2013-07-17 00:02:00,
2013-07-17 03:07:00,74.7,60.4,29.88,North,5,6.9,6.9,61,0.00,CLR,SCT,0.00,WeatherDisplay:10.37,2013-07-17 00:07:00,
2013-07-17 03:12:00,74.5,60.6,29.88,NE,53,8.1,8.1,62,0.00,CLR,SCT,0.00,WeatherDisplay:10.37,2013-07-17 00:12:00,
2013-07-17 03:17:00,74.4,60.5,29.88,NNE,15,9.2,9.2,62,0.00,CLR,SCT,0.00,WeatherDisplay:10.37,2013-07-17 00:17:00,
2013-07-17 03:22:00,74.3,60.4,29.88,NE,42,5.8,5.8,62,0.00,CLR,SCT,0.00,WeatherDisplay:10.37,2013-07-17 00:22:00,
2013-07-17 03:27:00,74.3,60.4,29.88,NE,45,9.2,9.2,62,0.00,CLR,SCT,0.00,WeatherDisplay:10.37,2013-07-17 00:27:00,
2013-07-17 03:32:00,74.2,60.3,29.88,NE,49,6.9,6.9,62,0.00,CLR,SCT,0.00,WeatherDisplay:10.37,2013-07-17 00:32:00,
2013-07-17 03:37:00,74.2,60.3,29.89,ENE,67,5.8,5.8,62,0.00,CLR,SCT,0.00,WeatherDisplay:10.37,2013-07-17 00:37:00,
2013-07-17 03:42:00,74.2,60.3,29.89,NNE,24,5.8,5.8,62,0.00,CLR,SCT,0.00,WeatherDisplay:10.37,2013-07-17 00:42:00,
2013-07-17 03:47:00,74.1,60.2,29.89,NNE,19,3.5,3.5,62,0.00,CLR,SCT,0.00,WeatherDisplay:10.37,2013-07-17 00:47:00,
2013-07-17 03:48:00,74.1,60.2,29.89,NE,38,3.5,3.5,62,0.00,CLR,SCT,0.00,WeatherDisplay:10.37,2013-07-17 00:48:00,
2013-07-17 03:53:00,74.0,59.7,29.88,North,11,5.8,5.8,61,0.00,CLR,SCT,0.00,WeatherDisplay:10.37,2013-07-17 00:53:00,
2013-07-17 03:58:00,74.0,59.7,29.89,NE,39,6.9,6.9,61,0.00,CLR,SCT,0.00,WeatherDisplay:10.37,2013-07-17 00:58:00,
2013-07-17 04:03:00,74.1,59.8,29.89,NNE,28,8.0,8.0,61,0.00,CLR,SCT,0.00,WeatherDisplay:10.37,2013-07-17 01:03:00,
2013-07-17 04:08:00,74.1,60.2,29.89,NE,40,11.5,11.5,62,0.00,CLR,SCT,0.00,WeatherDisplay:10.37,2013-07-17 01:08:00,
2013-07-17 04:13:00,74.1,60.2,29.89,North,5,8.1,8.1,62,0.00,CLR,SCT,0.00,WeatherDisplay:10.37,2013-07-17 01:13:00,
2013-07-17 04:18:00,74.1,60.7,29.89,NE,40,6.9,6.9,63,0.00,CLR,SCT,0.00,WeatherDisplay:10.37,2013-07-17 01:18:00,
2013-07-17 04:23:00,73.9,61.0,29.89,NE,55,11.5,11.5,64,0.00,CLR,SCT,0.00,WeatherDisplay:10.37,2013-07-17 01:23:00,
2013-07-17 04:28:00,73.8,61.3,29.89,NE,52,5.8,5.8,65,0.00,CLR,SCT,0.00,WeatherDisplay:10.37,2013-07-17 01:28:00,
2013-07-17 04:33:00,73.7,61.6,29.89,North,9,8.1,8.1,66,0.00,CLR,SCT,0.00,WeatherDisplay:10.37,2013-07-17 01:33:00,
2013-07-17 04:38:00,73.6,62.0,29.89,NE,50,5.8,5.8,67,0.00,CLR,SCT,0.00,WeatherDisplay:10.37,2013-07-17 01:38:00,
2013-07-17 04:43:00,73.6,62.0,29.89,East,82,5.8,5.8,67,0.00,CLR,SCT,0.00,WeatherDisplay:10.37,2013-07-17 01:43:00,
2013-07-17 04:48:00,73.5,62.3,29.89,NW,321,8.1,8.1,68,0.00,CLR,SCT,0.00,WeatherDisplay:10.37,2013-07-17 01:48:00,
2013-07-17 04:53:00,73.5,62.3,29.89,NE,50,8.1,8.1,68,0.00,CLR,SCT,0.00,WeatherDisplay:10.37,2013-07-17 01:53:00,
2013-07-17 04:58:00,73.5,62.3,29.89,NNE,31,10.4,10.4,68,0.00,CLR,SCT,0.00,WeatherDisplay:10.37,2013-07-17 01:58:00,
2013-07-17 05:03:00,73.4,62.2,29.89,NE,49,11.5,11.5,68,0.00,CLR,SCT,0.00,WeatherDisplay:10.37,2013-07-17 02:03:00,
2013-07-17 05:08:00,73.4,61.8,29.89,NE,36,5.8,5.8,67,0.00,CLR,SCT,0.00,WeatherDisplay:10.37,2013-07-17 02:08:00,
2013-07-17 05:13:00,73.4,61.8,29.89,NE,37,6.9,6.9,67,0.00,CLR,SCT,0.00,WeatherDisplay:10.37,2013-07-17 02:13:00,
2013-07-17 05:18:00,73.4,61.8,29.89,NE,47,1.2,1.2,67,0.00,CLR,SCT,0.00,WeatherDisplay:10.37,2013-07-17 02:18:00,
2013-07-17 05:23:00,73.4,60.9,29.89,NNW,340,13.8,13.8,65,0.00,CLR,SCT,0.00,WeatherDisplay:10.37,2013-07-17 02:23:00,
2013-07-17 05:28:00,73.5,60.6,29.89,NNW,332,10.4,10.4,64,0.00,CLR,SCT,0.00,WeatherDisplay:10.37,2013-07-17 02:28:00,
2013-07-17 05:33:00,73.5,60.6,29.89,NNE,27,9.0,9.0,64,0.00,CLR,SCT,0.00,WeatherDisplay:10.37,2013-07-17 02:33:00,
2013-07-17 05:38:00,73.6,60.2,29.89,NNW,348,10.4,10.4,63,0.00,CLR,SCT,0.00,WeatherDisplay:10.37,2013-07-17 02:38:00,
2013-07-17 05:43:00,73.6,60.2,29.89,NNW,346,6.9,6.9,63,0.00,CLR,SCT,0.00,WeatherDisplay:10.37,2013-07-17 02:43:00,
2013-07-17 05:48:00,73.6,60.2,29.89,North,355,5.0,5.0,63,0.00,CLR,SCT,0.00,WeatherDisplay:10.37,2013-07-17 02:48:00,
2013-07-17 05:53:00,73.6,59.8,29.89,NE,55,11.5,11.5,62,0.00,CLR,SCT,0.00,WeatherDisplay:10.37,2013-07-17 02:53:00,
2013-07-17 05:58:00,73.5,59.7,29.90,NNW,348,3.5,3.5,62,0.00,CLR,SCT,0.00,WeatherDisplay:10.37,2013-07-17 02:58:00,
2013-07-17 06:03:00,73.6,59.8,29.90,NNE,28,3.5,3.5,62,0.00,CLR,SCT,0.00,WeatherDisplay:10.37,2013-07-17 03:03:00,
2013-07-17 06:08:00,73.6,59.8,29.90,ENE,69,2.3,2.3,62,0.00,CLR,SCT,0.00,WeatherDisplay:10.37,2013-07-17 03:08:00,
2013-07-17 06:13:00,73.6,59.8,29.90,NNE,13,6.9,6.9,62,0.00,CLR,SCT,0.00,WeatherDisplay:10.37,2013-07-17 03:13:00,
2013-07-17 06:18:00,73.6,59.8,29.90,NNW,344,5.8,5.8,62,0.00,CLR,SCT,0.00,WeatherDisplay:10.37,2013-07-17 03:18:00,
2013-07-17 06:23:00,73.6,59.3,29.89,North,355,9.0,9.0,61,0.00,CLR,SCT,0.00,WeatherDisplay:10.37,2013-07-17 03:23:00,
2013-07-17 06:28:00,73.7,59.4,29.90,NNE,21,7.0,7.0,61,0.00,CLR,SCT,0.00,WeatherDisplay:10.37,2013-07-17 03:28:00,
2013-07-17 06:33:00,73.7,58.9,29.90,North,5,8.0,8.0,60,0.00,CLR,SCT,0.00,WeatherDisplay:10.37,2013-07-17 03:33:00,
2013-07-17 06:38:00,73.7,58.9,29.90,NE,51,10.4,10.4,60,0.00,CLR,SCT,0.00,WeatherDisplay:10.37,2013-07-17 03:38:00,
2013-07-17 06:43:00,73.8,59.0,29.90,NNE,22,5.8,5.8,60,0.00,CLR,SCT,0.00,WeatherDisplay:10.37,2013-07-17 03:43:00,
2013-07-17 06:48:00,73.9,58.7,29.90,NNW,344,6.0,6.0,59,0.00,CLR,SCT,0.00,WeatherDisplay:10.37,2013-07-17 03:48:00,
2013-07-17 06:53:00,74.0,59.7,29.90,NW,320,5.8,5.8,61,0.00,CLR,SCT,0.00,WeatherDisplay:10.37,2013-07-17 03:53:00,
2013-07-17 06:58:00,74.0,60.2,29.90,ESE,104,6.9,6.9,62,0.00,CLR,SCT,0.00,WeatherDisplay:10.37,2013-07-17 03:58:00,
2013-07-17 07:01:00,74.0,60.2,29.91,ENE,67,4.6,4.6,62,0.00,CLR,SCT,0.00,WeatherDisplay:10.37,2013-07-17 04:01:00,
2013-07-17 07:06:00,74.1,60.7,29.91,NNE,31,7.0,7.0,63,0.00,CLR,SCT,0.00,WeatherDisplay:10.37,2013-07-17 04:06:00,
2013-07-17 07:11:00,74.1,60.7,29.91,NNW,331,5.8,5.8,63,0.00,CLR,SCT,0.00,WeatherDisplay:10.37,2013-07-17 04:11:00,
2013-07-17 07:16:00,74.0,60.6,29.91,NW,325,6.9,6.9,63,0.00,CLR,SCT,0.00,WeatherDisplay:10.37,2013-07-17 04:16:00,
2013-07-17 07:21:00,73.9,61.0,29.91,North,9,8.1,8.1,64,0.00,CLR,SCT,0.00,WeatherDisplay:10.37,2013-07-17 04:21:00,
2013-07-17 07:26:00,73.8,60.9,29.91,NNW,344,8.1,8.1,64,0.00,CLR,SCT,0.00,WeatherDisplay:10.37,2013-07-17 04:26:00,
2013-07-17 07:31:00,73.7,60.8,29.90,NNE,24,11.5,11.5,64,0.00,CLR,SCT,0.00,WeatherDisplay:10.37,2013-07-17 04:31:00,
2013-07-17 07:36:00,73.7,60.8,29.91,NNW,334,10.4,10.4,64,0.00,CLR,SCT,0.00,WeatherDisplay:10.37,2013-07-17 04:36:00,
2013-07-17 07:41:00,73.6,60.7,29.91,WNW,299,7.0,7.0,64,0.00,CLR,SCT,0.00,WeatherDisplay:10.37,2013-07-17 04:41:00,
2013-07-17 07:46:00,73.3,60.4,29.91,NE,55,11.5,11.5,64,0.00,CLR,SCT,0.00,WeatherDisplay:10.37,2013-07-17 04:46:00,
2013-07-17 07:51:00,73.3,60.8,29.91,NE,52,7.0,7.0,65,0.00,CLR,SCT,0.00,WeatherDisplay:10.37,2013-07-17 04:51:00,
2013-07-17 07:55:00,73.1,60.6,29.92,East,82,13.8,13.8,65,0.00,CLR,SCT,0.00,WeatherDisplay:10.37,2013-07-17 04:55:00,
2013-07-17 07:59:00,72.8,61.2,29.92,North,355,15.0,15.0,67,0.00,CLR,SCT,0.00,WeatherDisplay:10.37,2013-07-17 04:59:00,
2013-07-17 08:04:00,72.4,61.2,29.92,North,355,16.1,16.1,68,0.00,CLR,SCT,0.00,WeatherDisplay:10.37,2013-07-17 05:04:00,
2013-07-17 08:09:00,71.9,61.6,29.92,North,355,10.4,10.4,70,0.00,CLR,SCT,0.00,WeatherDisplay:10.37,2013-07-17 05:09:00,
2013-07-17 08:14:00,71.7,61.4,29.92,NE,38,19.6,19.6,70,0.00,CLR,SCT,0.00,WeatherDisplay:10.37,2013-07-17 05:14:00,
2013-07-17 08:19:00,71.5,61.6,29.92,NE,38,11.5,11.5,71,0.00,CLR,SCT,0.00,WeatherDisplay:10.37,2013-07-17 05:19:00,
2013-07-17 08:24:00,71.4,61.1,29.92,North,355,16.1,16.1,70,0.00,CLR,SCT,0.00,WeatherDisplay:10.37,2013-07-17 05:24:00,
2013-07-17 08:29:00,71.3,60.6,29.92,NNW,331,8.1,8.1,69,0.00,CLR,SCT,0.00,WeatherDisplay:10.37,2013-07-17 05:29:00,
2013-07-17 08:34:00,71.1,60.4,29.92,NNW,331,15.0,15.0,69,0.00,CLR,SCT,0.00,WeatherDisplay:10.37,2013-07-17 05:34:00,
2013-07-17 08:39:00,71.1,60.4,29.92,NNW,340,16.1,16.1,69,0.00,CLR,SCT,0.00,WeatherDisplay:10.37,2013-07-17 05:39:00,
2013-07-17 08:44:00,71.0,60.3,29.92,NW,325,13.8,13.8,69,0.00,CLR,SCT,0.00,WeatherDisplay:10.37,2013-07-17 05:44:00,
2013-07-17 08:49:00,71.1,60.4,29.92,NNW,346,5.0,5.0,69,0.00,CLR,SCT,0.00,WeatherDisplay:10.37,2013-07-17 05:49:00,
2013-07-17 08:54:00,71.2,60.5,29.92,NW,324,4.6,4.6,69,0.00,CLR,SCT,0.00,WeatherDisplay:10.37,2013-07-17 05:54:00,
2013-07-17 08:59:00,71.4,60.7,29.92,NNW,340,9.2,9.2,69,0.00,CLR,SCT,0.00,WeatherDisplay:10.37,2013-07-17 05:59:00,
2013-07-17 09:04:00,71.5,60.4,29.92,NNW,329,8.1,8.1,68,0.00,CLR,SCT,0.00,WeatherDisplay:10.37,2013-07-17 06:04:00,
2013-07-17 09:09:00,71.5,60.0,29.93,ENE,57,11.5,11.5,67,0.00,CLR,SCT,0.00,WeatherDisplay:10.37,2013-07-17 06:09:00,
2013-07-17 09:14:00,71.5,60.0,29.92,North,5,15.0,15.0,67,0.00,CLR,SCT,0.00,WeatherDisplay:10.37,2013-07-17 06:14:00,
2013-07-17 09:19:00,71.5,59.5,29.92,North,5,12.7,12.7,66,0.00,CLR,SCT,0.00,WeatherDisplay:10.37,2013-07-17 06:19:00,
2013-07-17 09:24:00,71.7,59.7,29.92,NNW,336,19.6,19.6,66,0.00,CLR,SCT,0.00,WeatherDisplay:10.37,2013-07-17 06:24:00,
2013-07-17 09:29:00,71.8,60.2,29.92,NNW,348,11.5,11.5,67,0.00,CLR,SCT,0.00,WeatherDisplay:10.37,2013-07-17 06:29:00,
2013-07-17 09:34:00,72.1,60.5,29.92,NNW,329,8.1,8.1,67,0.00,CLR,SCT,0.00,WeatherDisplay:10.37,2013-07-17 06:34:00,
2013-07-17 09:39:00,72.4,60.4,29.92,North,351,11.5,11.5,66,0.00,CLR,SCT,0.00,WeatherDisplay:10.37,2013-07-17 06:39:00,
2013-07-17 09:44:00,72.8,60.8,29.92,NNW,345,16.1,16.1,66,0.00,CLR,SCT,0.00,WeatherDisplay:10.37,2013-07-17 06:44:00,
2013-07-17 09:49:00,73.1,60.6,29.92,North,355,13.8,13.8,65,0.00,CLR,SCT,0.00,WeatherDisplay:10.37,2013-07-17 06:49:00,
2013-07-17 09:54:00,73.3,60.4,29.92,NNW,333,16.1,16.1,64,0.00,CLR,SCT,0.00,WeatherDisplay:10.37,2013-07-17 06:54:00,
2013-07-17 09:59:00,73.9,60.1,29.92,North,355,18.4,18.4,62,0.00,CLR,SCT,0.00,WeatherDisplay:10.37,2013-07-17 06:59:00,
2013-07-17 10:04:00,74.1,60.2,29.92,NNW,329,13.0,13.0,62,0.00,CLR,SCT,0.00,WeatherDisplay:10.37,2013-07-17 07:04:00,
2013-07-17 10:09:00,74.0,60.6,29.92,NW,319,17.0,17.0,63,0.00,CLR,SCT,0.00,WeatherDisplay:10.37,2013-07-17 07:09:00,
2013-07-17 10:14:00,74.2,60.8,29.92,North,355,10.4,10.4,63,0.00,CLR,SCT,0.00,WeatherDisplay:10.37,2013-07-17 07:14:00,
2013-07-17 10:19:00,74.0,60.2,29.92,North,360,10.4,10.4,62,0.00,CLR,SCT,0.00,WeatherDisplay:10.37,2013-07-17 07:19:00,
2013-07-17 10:24:00,74.0,60.6,29.92,ENE,61,11.5,11.5,63,0.00,CLR,SCT,0.00,WeatherDisplay:10.37,2013-07-17 07:24:00,
2013-07-17 10:29:00,73.7,60.8,29.93,NNE,13,17.3,17.3,64,0.00,CLR,SCT,0.00,WeatherDisplay:10.37,2013-07-17 07:29:00,
2013-07-17 10:34:00,73.4,60.0,29.93,NW,305,16.1,16.1,63,0.00,CLR,SCT,0.00,WeatherDisplay:10.37,2013-07-17 07:34:00,
2013-07-17 10:39:00,73.4,60.5,29.93,NNW,341,13.8,13.8,64,0.00,CLR,SCT,0.00,WeatherDisplay:10.37,2013-07-17 07:39:00,
2013-07-17 10:44:00,73.6,60.7,29.93,NE,53,11.5,11.5,64,0.00,CLR,SCT,0.00,WeatherDisplay:10.37,2013-07-17 07:44:00,
2013-07-17 10:49:00,73.8,60.4,29.93,NE,38,6.9,6.9,63,0.00,CLR,SCT,0.00,WeatherDisplay:10.37,2013-07-17 07:49:00,
2013-07-17 10:54:00,73.7,60.3,29.93,NNW,335,15.0,15.0,63,0.00,CLR,SCT,0.00,WeatherDisplay:10.37,2013-07-17 07:54:00,
2013-07-17 10:59:00,73.6,60.2,29.93,NW,322,11.5,11.5,63,0.00,CLR,SCT,0.00,WeatherDisplay:10.37,2013-07-17 07:59:00,
2013-07-17 11:04:00,73.7,60.3,29.93,North,5,15.0,15.0,63,0.00,CLR,SCT,0.00,WeatherDisplay:10.37,2013-07-17 08:04:00,
2013-07-17 11:09:00,73.7,60.8,29.93,NNE,30,12.7,12.7,64,0.00,CLR,SCT,0.00,WeatherDisplay:10.37,2013-07-17 08:09:00,
2013-07-17 11:14:00,73.7,60.8,29.93,NNW,339,9.2,9.2,64,0.00,CLR,SCT,0.00,WeatherDisplay:10.37,2013-07-17 08:14:00,
2013-07-17 11:19:00,73.7,60.8,29.93,NW,325,12.7,12.7,64,0.00,CLR,SCT,0.00,WeatherDisplay:10.37,2013-07-17 08:19:00,
2013-07-17 11:24:00,73.7,60.8,29.93,NNW,343,10.4,10.4,64,0.00,CLR,SCT,0.00,WeatherDisplay:10.37,2013-07-17 08:24:00,
2013-07-17 11:29:00,73.6,61.1,29.94,NW,312,9.2,9.2,65,0.00,CLR,SCT,0.00,WeatherDisplay:10.37,2013-07-17 08:29:00,
2013-07-17 11:34:00,73.6,61.1,29.93,NW,305,17.0,17.0,65,0.00,CLR,SCT,0.00,WeatherDisplay:10.37,2013-07-17 08:34:00,
2013-07-17 11:39:00,73.3,60.8,29.93,NNW,348,15.0,15.0,65,0.00,CLR,SCT,0.00,WeatherDisplay:10.37,2013-07-17 08:39:00,
2013-07-17 11:44:00,73.1,61.1,29.93,NE,51,11.5,11.5,66,0.00,CLR,SCT,0.00,WeatherDisplay:10.37,2013-07-17 08:44:00,
2013-07-17 11:49:00,73.3,61.3,29.93,NE,42,8.1,8.1,66,0.00,CLR,SCT,0.00,WeatherDisplay:10.37,2013-07-17 08:49:00,
2013-07-17 11:54:00,73.7,61.2,29.93,NW,315,12.0,12.0,65,0.00,CLR,SCT,0.00,WeatherDisplay:10.37,2013-07-17 08:54:00,
2013-07-17 11:59:00,73.9,61.4,29.93,NW,323,9.2,9.2,65,0.00,CLR,SCT,0.00,WeatherDisplay:10.37,2013-07-17 08:59:00,
2013-07-17 12:04:00,74.0,61.0,29.93,North,355,11.5,11.5,64,0.00,CLR,SCT,0.00,WeatherDisplay:10.37,2013-07-17 09:04:00,
2013-07-17 12:09:00,74.3,61.3,29.94,NNW,343,19.6,19.6,64,0.00,CLR,SCT,0.00,WeatherDisplay:10.37,2013-07-17 09:09:00,
2013-07-17 12:14:00,74.7,61.3,29.94,North,350,16.1,16.1,63,0.00,CLR,SCT,0.00,WeatherDisplay:10.37,2013-07-17 09:14:00,
2013-07-17 12:19:00,75.1,62.1,29.94,North,355,8.1,8.1,64,0.00,CLR,SCT,0.00,WeatherDisplay:10.37,2013-07-17 09:19:00,
2013-07-17 12:24:00,75.5,61.6,29.94,NE,45,13.8,13.8,62,0.00,CLR,SCT,0.00,WeatherDisplay:10.37,2013-07-17 09:24:00,
2013-07-17 12:29:00,75.3,61.4,29.94,North,355,18.4,18.4,62,0.00,CLR,SCT,0.00,WeatherDisplay:10.37,2013-07-17 09:29:00,
2013-07-17 12:34:00,74.7,61.3,29.94,North,355,16.1,16.1,63,0.00,CLR,SCT,0.00,WeatherDisplay:10.37,2013-07-17 09:34:00,
2013-07-17 12:39:00,74.6,61.2,29.93,NW,321,19.6,19.6,63,0.00,CLR,SCT,0.00,WeatherDisplay:10.37,2013-07-17 09:39:00,
2013-07-17 12:44:00,74.4,61.4,29.94,North,10,11.5,11.5,64,0.00,CLR,SCT,0.00,WeatherDisplay:10.37,2013-07-17 09:44:00,
2013-07-17 12:49:00,75.0,62.0,29.93,NNW,335,16.1,16.1,64,0.00,CLR,SCT,0.00,WeatherDisplay:10.37,2013-07-17 09:49:00,
2013-07-17 12:54:00,75.2,61.7,29.93,NNE,15,18.4,18.4,63,0.00,CLR,SCT,0.00,WeatherDisplay:10.37,2013-07-17 09:54:00,
2013-07-17 12:59:00,75.5,61.6,29.93,NNW,344,11.5,11.5,62,0.00,CLR,SCT,0.00,WeatherDisplay:10.37,2013-07-17 09:59:00,
2013-07-17 13:04:00,76.1,61.7,29.93,NNW,347,6.9,6.9,61,0.00,CLR,SCT,0.00,WeatherDisplay:10.37,2013-07-17 10:04:00,
2013-07-17 13:09:00,76.6,61.2,29.92,NNW,327,23.0,23.0,59,0.00,CLR,SCT,0.00,WeatherDisplay:10.37,2013-07-17 10:09:00,
2013-07-17 13:14:00,76.3,60.9,29.93,NNW,329,19.0,19.0,59,0.00,CLR,SCT,0.00,WeatherDisplay:10.37,2013-07-17 10:14:00,
2013-07-17 13:20:00,76.3,60.9,29.93,NW,318,19.6,19.6,59,0.00,CLR,SCT,0.00,WeatherDisplay:10.37,2013-07-17 10:20:00,
2013-07-17 13:25:00,76.5,61.1,29.93,North,5,10.4,10.4,59,0.00,CLR,SCT,0.00,WeatherDisplay:10.37,2013-07-17 10:25:00,
2013-07-17 13:30:00,76.9,61.0,29.93,ENE,74,8.1,8.1,58,0.00,CLR,SCT,0.00,WeatherDisplay:10.37,2013-07-17 10:30:00,
2013-07-17 13:35:00,77.3,61.4,29.93,NW,317,18.4,18.4,58,0.00,CLR,SCT,0.00,WeatherDisplay:10.37,2013-07-17 10:35:00,
2013-07-17 13:40:00,77.1,61.2,29.93,NNW,342,13.8,13.8,58,0.00,CLR,SCT,0.00,WeatherDisplay:10.37,2013-07-17 10:40:00,
2013-07-17 13:45:00,76.8,60.9,29.93,NW,310,12.7,12.7,58,0.00,CLR,SCT,0.00,WeatherDisplay:10.37,2013-07-17 10:45:00,
2013-07-17 13:50:00,76.5,60.6,29.93,NE,49,11.5,11.5,58,0.00,CLR,SCT,0.00,WeatherDisplay:10.37,2013-07-17 10:50:00,
2013-07-17 13:55:00,76.5,60.6,29.93,ENE,63,11.5,11.5,58,0.00,CLR,SCT,0.00,WeatherDisplay:10.37,2013-07-17 10:55:00,
2013-07-17 14:00:00,76.4,61.0,29.93,NW,321,15.0,15.0,59,0.00,CLR,SCT,0.00,WeatherDisplay:10.37,2013-07-17 11:00:00,
2013-07-17 14:05:00,76.7,60.8,29.92,NNE,22,18.4,18.4,58,0.00,CLR,SCT,0.00,WeatherDisplay:10.37,2013-07-17 11:05:00,
2013-07-17 14:10:00,76.8,60.9,29.93,WNW,303,15.0,15.0,58,0.00,CLR,SCT,0.00,WeatherDisplay:10.37,2013-07-17 11:10:00,
2013-07-17 14:15:00,77.0,61.1,29.93,NNE,13,13.8,13.8,58,0.00,CLR,SCT,0.00,WeatherDisplay:10.37,2013-07-17 11:15:00,
2013-07-17 14:20:00,77.1,61.2,29.93,NW,325,11.5,11.5,58,0.00,CLR,SCT,0.00,WeatherDisplay:10.37,2013-07-17 11:20:00,
2013-07-17 14:25:00,76.9,60.5,29.93,North,355,18.4,18.4,57,0.00,CLR,SCT,0.00,WeatherDisplay:10.37,2013-07-17 11:25:00,
2013-07-17 14:30:00,76.8,60.9,29.92,NNW,335,16.1,16.1,58,0.00,CLR,SCT,0.00,WeatherDisplay:10.37,2013-07-17 11:30:00,
2013-07-17 14:35:00,76.8,60.9,29.92,NNW,348,17.3,17.3,58,0.00,CLR,SCT,0.00,WeatherDisplay:10.37,2013-07-17 11:35:00,
2013-07-17 14:40:00,77.1,61.2,29.92,NNW,338,11.5,11.5,58,0.00,CLR,SCT,0.00,WeatherDisplay:10.37,2013-07-17 11:40:00,
2013-07-17 14:45:00,77.6,61.2,29.93,North,360,13.8,13.8,57,0.00,CLR,SCT,0.00,WeatherDisplay:10.37,2013-07-17 11:45:00,
2013-07-17 14:50:00,77.5,61.1,29.92,NNE,18,13.0,13.0,57,0.00,CLR,SCT,0.00,WeatherDisplay:10.37,2013-07-17 11:50:00,
2013-07-17 14:55:00,77.5,61.1,29.92,NNW,332,15.0,15.0,57,0.00,CLR,SCT,0.00,WeatherDisplay:10.37,2013-07-17 11:55:00,
2013-07-17 15:00:00,77.7,61.3,29.93,North,349,8.0,15.0,57,0.00,CLR,SCT,0.00,WeatherDisplay:10.37,2013-07-17 12:00:00,
2013-07-17 15:05:00,77.4,61.0,29.93,NNW,344,13.0,18.0,57,0.00,CLR,SCT,0.00,WeatherDisplay:10.37,2013-07-17 12:05:00,
2013-07-17 15:10:00,77.2,60.8,29.92,North,360,9.0,18.0,57,0.00,CLR,SCT,0.00,WeatherDisplay:10.37,2013-07-17 12:10:00,
2013-07-17 15:15:00,77.4,60.0,29.92,North,351,10.0,22.0,55,0.00,CLR,SCT,0.00,WeatherDisplay:10.37,2013-07-17 12:15:00,
2013-07-17 15:20:00,77.3,60.9,29.92,NNW,335,7.0,21.0,57,0.00,CLR,SCT,0.00,WeatherDisplay:10.37,2013-07-17 12:20:00,
2013-07-17 15:25:00,77.8,61.3,29.92,NNW,344,9.0,17.0,57,0.00,CLR,SCT,0.00,WeatherDisplay:10.37,2013-07-17 12:25:00,
2013-07-17 15:30:00,78.0,61.5,29.92,NNW,338,12.0,20.0,57,0.00,CLR,SCT,0.00,WeatherDisplay:10.37,2013-07-17 12:30:00,
2013-07-17 15:35:00,77.8,60.8,29.92,NNE,20,17.3,17.3,56,0.00,CLR,SCT,0.00,WeatherDisplay:10.37,2013-07-17 12:35:00,
2013-07-17 15:40:00,78.0,61.0,29.92,NNW,345,12.0,21.0,56,0.00,CLR,SCT,0.00,WeatherDisplay:10.37,2013-07-17 12:40:00,
2013-07-17 15:45:00,78.1,61.1,29.92,NNW,346,8.0,17.0,56,0.00,CLR,SCT,0.00,WeatherDisplay:10.37,2013-07-17 12:45:00,
2013-07-17 15:50:00,78.0,61.0,29.92,NNW,333,17.3,17.3,56,0.00,CLR,SCT,0.00,WeatherDisplay:10.37,2013-07-17 12:50:00,
2013-07-17 15:55:00,78.4,60.9,29.92,NNW,341,7.0,12.0,55,0.00,CLR,SCT,0.00,WeatherDisplay:10.37,2013-07-17 12:55:00,
2013-07-17 16:00:00,79.2,61.6,29.91,NNW,343,11.5,11.5,55,0.00,CLR,SCT,0.00,WeatherDisplay:10.37,2013-07-17 13:00:00,
2013-07-17 16:05:00,79.0,60.4,29.92,North,355,17.3,17.3,53,0.00,CLR,SCT,0.00,WeatherDisplay:10.37,2013-07-17 13:05:00,
2013-07-17 16:10:00,78.6,60.0,29.91,North,5,11.5,11.5,53,0.00,CLR,SCT,0.00,WeatherDisplay:10.37,2013-07-17 13:10:00,
2013-07-17 16:15:00,78.4,60.4,29.91,North,2,7.0,15.0,54,0.00,CLR,SCT,0.00,WeatherDisplay:10.37,2013-07-17 13:15:00,
2013-07-17 16:20:00,78.9,60.3,29.91,NNE,19,15.0,15.0,53,0.00,CLR,SCT,0.00,WeatherDisplay:10.37,2013-07-17 13:20:00,
2013-07-17 16:25:00,79.1,60.5,29.91,NNW,341,6.0,13.0,53,0.00,CLR,SCT,0.00,WeatherDisplay:10.37,2013-07-17 13:25:00,
2013-07-17 16:30:00,79.1,60.5,29.91,ENE,78,17.3,17.3,53,0.00,CLR,SCT,0.00,WeatherDisplay:10.37,2013-07-17 13:30:00,
2013-07-17 16:35:00,79.1,60.0,29.92,NE,56,16.1,16.1,52,0.00,CLR,SCT,0.00,WeatherDisplay:10.37,2013-07-17 13:35:00,
2013-07-17 16:40:00,78.9,59.3,29.91,NNW,344,13.0,20.0,51,0.00,CLR,SCT,0.00,WeatherDisplay:10.37,2013-07-17 13:40:00,
2013-07-17 16:45:00,78.5,59.9,29.91,NNW,347,3.0,20.0,53,0.00,CLR,SCT,0.00,WeatherDisplay:10.37,2013-07-17 13:45:00,
2013-07-17 16:50:00,78.7,60.7,29.91,NNW,342,15.0,15.0,54,0.00,CLR,SCT,0.00,WeatherDisplay:10.37,2013-07-17 13:50:00,
2013-07-17 16:55:00,79.1,60.5,29.91,NNW,345,7.0,15.0,53,0.00,CLR,SCT,0.00,WeatherDisplay:10.37,2013-07-17 13:55:00,
2013-07-17 17:00:00,79.4,60.2,29.91,NNW,328,13.8,13.8,52,0.00,CLR,SCT,0.00,WeatherDisplay:10.37,2013-07-17 14:00:00,
2013-07-17 17:05:00,79.5,60.3,29.91,NNE,24,12.7,12.7,52,0.00,CLR,SCT,0.00,WeatherDisplay:10.37,2013-07-17 14:05:00,
2013-07-17 17:10:00,77.4,57.3,29.91,NNW,331,5.0,13.0,50,0.00,CLR,SCT,0.00,WeatherDisplay:10.37,2013-07-17 14:10:00,
2013-07-17 17:15:00,77.1,57.0,29.92,NW,326,7.0,14.0,50,0.00,CLR,SCT,0.00,WeatherDisplay:10.37,2013-07-17 14:15:00,
2013-07-17 17:20:00,76.9,57.4,29.91,NNW,334,2.0,12.0,51,0.00,CLR,SCT,0.00,WeatherDisplay:10.37,2013-07-17 14:20:00,
2013-07-17 17:25:00,76.9,56.8,29.91,North,355,5.0,8.0,50,0.00,CLR,SCT,0.00,WeatherDisplay:10.37,2013-07-17 14:25:00,
2013-07-17 17:30:00,76.9,57.4,29.91,North,350,5.0,11.0,51,0.00,CLR,SCT,0.00,WeatherDisplay:10.37,2013-07-17 14:30:00,
2013-07-17 17:35:00,76.6,57.1,29.91,NNW,341,3.0,10.0,51,0.00,CLR,SCT,0.00,WeatherDisplay:10.37,2013-07-17 14:35:00,
2013-07-17 17:40:00,76.5,57.6,29.92,NNW,342,3.0,11.0,52,0.00,CLR,SCT,0.00,WeatherDisplay:10.37,2013-07-17 14:40:00,
2013-07-17 17:45:00,76.3,57.4,29.92,NNW,338,7.0,10.0,52,0.00,CLR,SCT,0.00,WeatherDisplay:10.37,2013-07-17 14:45:00,
2013-07-17 17:50:00,76.2,57.3,29.91,NNW,339,7.0,11.0,52,0.00,CLR,SCT,0.00,WeatherDisplay:10.37,2013-07-17 14:50:00,
2013-07-17 17:55:00,76.1,57.2,29.92,NNW,335,8.0,13.0,52,0.00,CLR,SCT,0.00,WeatherDisplay:10.37,2013-07-17 14:55:00,
2013-07-17 18:00:00,76.0,57.1,29.92,NNW,330,6.0,10.0,52,0.00,CLR,SCT,0.00,WeatherDisplay:10.37,2013-07-17 15:00:00,
2013-07-17 18:05:00,75.9,57.5,29.92,NNW,343,5.0,8.0,53,0.00,CLR,SCT,0.00,WeatherDisplay:10.37,2013-07-17 15:05:00,
2013-07-17 18:10:00,75.8,57.4,29.92,North,350,6.0,10.0,53,0.00,CLR,SCT,0.00,WeatherDisplay:10.37,2013-07-17 15:10:00,
2013-07-17 18:15:00,75.7,57.4,29.92,NNW,330,2.0,9.0,53,0.00,CLR,SCT,0.00,WeatherDisplay:10.37,2013-07-17 15:15:00,
2013-07-17 18:20:00,75.6,56.7,29.92,NW,314,2.0,9.0,52,0.00,CLR,SCT,0.00,WeatherDisplay:10.37,2013-07-17 15:20:00,
2013-07-17 18:25:00,75.6,56.7,29.92,NW,321,5.0,11.0,52,0.00,CLR,SCT,0.00,WeatherDisplay:10.37,2013-07-17 15:25:00,
2013-07-17 18:30:00,75.5,56.6,29.92,NNW,328,6.0,9.0,52,0.00,CLR,SCT,0.00,WeatherDisplay:10.37,2013-07-17 15:30:00,
2013-07-17 18:35:00,75.5,56.6,29.92,NNW,329,1.0,9.0,52,0.00,CLR,SCT,0.00,WeatherDisplay:10.37,2013-07-17 15:35:00,
2013-07-17 18:40:00,75.4,57.1,29.92,NNW,330,1.0,4.0,53,0.00,CLR,SCT,0.00,WeatherDisplay:10.37,2013-07-17 15:40:00,
2013-07-17 18:45:00,75.3,57.0,29.93,NW,324,1.0,7.0,53,0.00,CLR,SCT,0.00,WeatherDisplay:10.37,2013-07-17 15:45:00,
2013-07-17 18:50:00,75.2,57.4,29.93,NNW,334,3.0,10.0,54,0.00,CLR,SCT,0.00,WeatherDisplay:10.37,2013-07-17 15:50:00,
2013-07-17 18:55:00,75.2,57.4,29.93,NNW,340,2.0,8.0,54,0.00,CLR,SCT,0.00,WeatherDisplay:10.37,2013-07-17 15:55:00,
2013-07-17 19:00:00,75.1,57.3,29.93,North,4,3.0,8.0,54,0.00,CLR,SCT,0.00,WeatherDisplay:10.37,2013-07-17 16:00:00,
2013-07-17 19:05:00,75.1,57.8,29.93,NE,38,2.0,7.0,55,0.00,CLR,SCT,0.00,WeatherDisplay:10.37,2013-07-17 16:05:00,
2013-07-17 19:10:00,75.1,57.8,29.93,NNE,28,3.0,9.0,55,0.00,CLR,SCT,0.00,WeatherDisplay:10.37,2013-07-17 16:10:00,
2013-07-17 19:15:00,75.1,57.3,29.93,NNE,24,3.0,6.0,54,0.00,CLR,SCT,0.00,WeatherDisplay:10.37,2013-07-17 16:15:00,
2013-07-17 19:20:00,75.1,57.3,29.93,NE,36,0.0,6.0,54,0.00,CLR,SCT,0.00,WeatherDisplay:10.37,2013-07-17 16:20:00,
2013-07-17 19:25:00,75.0,57.2,29.93,NE,39,1.0,6.0,54,0.00,CLR,SCT,0.00,WeatherDisplay:10.37,2013-07-17 16:25:00,
2013-07-17 19:30:00,75.0,57.2,29.93,NNE,17,3.0,9.0,54,0.00,CLR,SCT,0.00,WeatherDisplay:10.37,2013-07-17 16:30:00,
2013-07-17 19:35:00,74.9,57.1,29.93,North,359,0.0,7.0,54,0.00,CLR,SCT,0.00,WeatherDisplay:10.37,2013-07-17 16:35:00,
2013-07-17 19:40:00,74.9,57.1,29.93,North,356,5.0,8.0,54,0.00,CLR,SCT,0.00,WeatherDisplay:10.37,2013-07-17 16:40:00,
2013-07-17 19:45:00,74.9,57.6,29.93,North,10,3.0,7.0,55,0.00,CLR,SCT,0.00,WeatherDisplay:10.37,2013-07-17 16:45:00,
2013-07-17 19:50:00,74.8,57.5,29.93,NNE,31,2.0,6.0,55,0.00,CLR,SCT,0.00,WeatherDisplay:10.37,2013-07-17 16:50:00,
2013-07-17 19:55:00,74.8,57.0,29.93,NE,35,1.0,7.0,54,0.00,CLR,SCT,0.00,WeatherDisplay:10.37,2013-07-17 16:55:00,
2013-07-17 20:00:00,74.8,57.0,29.93,NNE,24,3.0,7.0,54,0.00,CLR,SCT,0.00,WeatherDisplay:10.37,2013-07-17 17:00:00,
2013-07-17 20:05:00,74.8,57.0,29.93,NNE,25,3.0,6.0,54,0.00,CLR,SCT,0.00,WeatherDisplay:10.37,2013-07-17 17:05:00,
2013-07-17 20:10:00,74.8,57.0,29.93,NE,42,0.0,7.0,54,0.00,CLR,SCT,0.00,WeatherDisplay:10.37,2013-07-17 17:10:00,
2013-07-17 20:15:00,74.8,57.0,29.93,NE,50,1.0,9.0,54,0.00,CLR,SCT,0.00,WeatherDisplay:10.37,2013-07-17 17:15:00,
2013-07-17 20:20:00,74.8,57.0,29.92,NE,40,1.0,8.0,54,0.00,CLR,SCT,0.00,WeatherDisplay:10.37,2013-07-17 17:20:00,
2013-07-17 20:25:00,74.8,57.0,29.93,NNE,24,3.0,6.0,54,0.00,CLR,SCT,0.00,WeatherDisplay:10.37,2013-07-17 17:25:00,
2013-07-17 20:30:00,74.8,56.5,29.93,NNE,13,3.0,7.0,53,0.00,CLR,SCT,0.00,WeatherDisplay:10.37,2013-07-17 17:30:00,
2013-07-17 20:35:00,74.8,56.5,29.93,North,4,5.0,9.0,53,0.00,CLR,SCT,0.00,WeatherDisplay:10.37,2013-07-17 17:35:00,
2013-07-17 20:40:00,74.8,56.5,29.92,North,356,7.0,11.0,53,0.00,CLR,SCT,0.00,WeatherDisplay:10.37,2013-07-17 17:40:00,
2013-07-17 20:45:00,74.8,56.5,29.93,NNW,347,3.0,9.0,53,0.00,CLR,SCT,0.00,WeatherDisplay:10.37,2013-07-17 17:45:00,
2013-07-17 20:50:00,74.9,56.6,29.93,North,6,3.0,9.0,53,0.00,CLR,SCT,0.00,WeatherDisplay:10.37,2013-07-17 17:50:00,
2013-07-17 20:55:00,74.8,56.5,29.93,NNE,14,1.0,10.0,53,0.00,CLR,SCT,0.00,WeatherDisplay:10.37,2013-07-17 17:55:00,
2013-07-17 21:00:00,74.8,56.5,29.92,North,1,5.0,11.0,53,0.00,CLR,SCT,0.00,WeatherDisplay:10.37,2013-07-17 18:00:00,
2013-07-17 21:05:00,74.8,57.0,29.92,NNE,14,2.0,7.0,54,0.00,CLR,SCT,0.00,WeatherDisplay:10.37,2013-07-17 18:05:00,
2013-07-17 21:10:00,74.8,56.5,29.92,NNE,19,5.0,10.0,53,0.00,CLR,SCT,0.00,WeatherDisplay:10.37,2013-07-17 18:10:00,
2013-07-17 21:15:00,74.7,56.9,29.93,NNE,13,3.0,11.0,54,0.00,CLR,SCT,0.00,WeatherDisplay:10.37,2013-07-17 18:15:00,
2013-07-17 21:20:00,74.7,56.9,29.93,NNE,13,3.0,7.0,54,0.00,CLR,SCT,0.00,WeatherDisplay:10.37,2013-07-17 18:20:00,
2013-07-17 21:25:00,74.7,56.9,29.92,North,5,6.0,10.0,54,0.00,CLR,SCT,0.00,WeatherDisplay:10.37,2013-07-17 18:25:00,
2013-07-17 21:30:00,74.7,56.9,29.92,North,350,2.0,7.0,54,0.00,CLR,SCT,0.00,WeatherDisplay:10.37,2013-07-17 18:30:00,
2013-07-17 21:35:00,74.7,56.9,29.93,NNW,340,3.0,7.0,54,0.00,CLR,SCT,0.00,WeatherDisplay:10.37,2013-07-17 18:35:00,
2013-07-17 21:40:00,74.7,56.9,29.93,NNW,338,0.0,7.0,54,0.00,CLR,SCT,0.00,WeatherDisplay:10.37,2013-07-17 18:40:00,
2013-07-17 21:45:00,74.6,57.4,29.93,NNW,338,0.0,0.0,55,0.00,CLR,SCT,0.00,WeatherDisplay:10.37,2013-07-17 18:45:00,
2013-07-17 21:50:00,74.6,57.4,29.93,NNW,332,5.0,8.0,55,0.00,CLR,SCT,0.00,WeatherDisplay:10.37,2013-07-17 18:50:00,
2013-07-17 21:55:00,74.6,57.9,29.93,NNW,328,8.0,10.0,56,0.00,CLR,SCT,0.00,WeatherDisplay:10.37,2013-07-17 18:55:00,
2013-07-17 22:00:00,74.6,57.9,29.93,NNW,332,5.0,8.0,56,0.00,CLR,SCT,0.00,WeatherDisplay:10.37,2013-07-17 19:00:00,
2013-07-17 22:05:00,74.7,58.5,29.93,North,351,6.0,11.0,57,0.00,CLR,SCT,0.00,WeatherDisplay:10.37,2013-07-17 19:05:00,
2013-07-17 22:10:00,74.7,58.5,29.93,North,357,5.0,10.0,57,0.00,CLR,SCT,0.00,WeatherDisplay:10.37,2013-07-17 19:10:00,
2013-07-17 22:15:00,74.6,58.4,29.93,North,358,5.0,7.0,57,0.00,CLR,SCT,0.00,WeatherDisplay:10.37,2013-07-17 19:15:00,
2013-07-17 22:20:00,74.6,58.8,29.93,NNE,14,2.0,5.0,58,0.00,CLR,SCT,0.00,WeatherDisplay:10.37,2013-07-17 19:20:00,
2013-07-17 22:25:00,74.6,58.8,29.93,NNE,26,3.0,7.0,58,0.00,CLR,SCT,0.00,WeatherDisplay:10.37,2013-07-17 19:25:00,
2013-07-17 22:30:00,74.6,58.8,29.93,NNE,17,1.0,7.0,58,0.00,CLR,SCT,0.00,WeatherDisplay:10.37,2013-07-17 19:30:00,
2013-07-17 22:35:00,74.5,58.8,29.93,North,354,3.0,9.0,58,0.00,CLR,SCT,0.00,WeatherDisplay:10.37,2013-07-17 19:35:00,
2013-07-17 22:40:00,74.5,58.8,29.93,North,2,5.0,9.0,58,0.00,CLR,SCT,0.00,WeatherDisplay:10.37,2013-07-17 19:40:00,
2013-07-17 22:45:00,74.5,58.8,29.93,North,360,3.0,7.0,58,0.00,CLR,SCT,0.00,WeatherDisplay:10.37,2013-07-17 19:45:00,
2013-07-17 22:50:00,74.4,58.7,29.93,NNW,336,0.0,6.0,58,0.00,CLR,SCT,0.00,WeatherDisplay:10.37,2013-07-17 19:50:00,
2013-07-17 22:55:00,74.4,58.7,29.93,North,0,3.0,9.0,58,0.00,CLR,SCT,0.00,WeatherDisplay:10.37,2013-07-17 19:55:00,
2013-07-17 23:00:00,74.4,58.7,29.93,NNE,20,0.0,6.0,58,0.00,CLR,SCT,0.00,WeatherDisplay:10.37,2013-07-17 20:00:00,
2013-07-17 23:05:00,74.4,58.7,29.93,NNE,24,2.0,5.0,58,0.00,CLR,SCT,0.00,WeatherDisplay:10.37,2013-07-17 20:05:00,
2013-07-17 23:10:00,74.3,59.0,29.93,NNE,14,2.0,6.0,59,0.00,CLR,SCT,0.00,WeatherDisplay:10.37,2013-07-17 20:10:00,
2013-07-17 23:15:00,74.3,59.0,29.93,North,358,5.0,7.0,59,0.00,CLR,SCT,0.00,WeatherDisplay:10.37,2013-07-17 20:15:00,
2013-07-17 23:20:00,74.3,59.0,29.93,North,355,5.0,6.0,59,0.00,CLR,SCT,0.00,WeatherDisplay:10.37,2013-07-17 20:20:00,
2013-07-17 23:25:00,74.3,59.0,29.93,NNW,342,5.0,8.0,59,0.00,CLR,SCT,0.00,WeatherDisplay:10.37,2013-07-17 20:25:00,
2013-07-17 23:30:00,74.2,58.9,29.93,NW,326,1.0,5.0,59,0.00,CLR,SCT,0.00,WeatherDisplay:10.37,2013-07-17 20:30:00,
2013-07-17 23:35:00,74.2,58.9,29.93,NW,315,1.0,5.0,59,0.00,CLR,SCT,0.00,WeatherDisplay:10.37,2013-07-17 20:35:00,
2013-07-17 23:40:00,74.1,59.3,29.93,NW,325,2.0,7.0,60,0.00,CLR,SCT,0.00,WeatherDisplay:10.37,2013-07-17 20:40:00,
2013-07-17 23:45:00,74.1,59.3,29.93,NNW,336,1.0,6.0,60,0.00,CLR,SCT,0.00,WeatherDisplay:10.37,2013-07-17 20:45:00,
2013-07-17 23:50:00,74.0,59.7,29.93,NNW,338,0.0,3.0,61,0.00,CLR,SCT,0.00,WeatherDisplay:10.37,2013-07-17 20:50:00,
2013-07-17 23:55:00,73.9,59.6,29.93,North,355,3.0,5.0,61,0.00,CLR,SCT,0.00,WeatherDisplay:10.37,2013-07-17 20:55:00,